createdAt,value
2023-04-15T00:00:23.671Z,0.00
2023-04-15T00:01:23.670Z,0.00
2023-04-15T00:02:23.829Z,0.00
2023-04-15T00:03:24.777Z,0.00
2023-04-15T00:04:23.641Z,0.00
2023-04-15T00:05:23.581Z,0.00
2023-04-15T00:06:23.568Z,0.00
2023-04-15T00:07:23.548Z,0.00
2023-04-15T00:08:24.506Z,0.00
2023-04-15T00:09:23.540Z,0.00
2023-04-15T00:10:23.542Z,0.00
2023-04-15T00:11:23.494Z,0.00
2023-04-15T00:12:23.520Z,0.00
2023-04-15T00:13:24.448Z,0.00
2023-04-15T00:14:23.469Z,0.00
2023-04-15T00:15:23.507Z,0.00
2023-04-15T00:16:23.530Z,0.00
2023-04-15T00:17:23.500Z,0.00
2023-04-15T00:18:23.432Z,0.00
2023-04-15T00:19:24.383Z,0.00
2023-04-15T00:20:23.404Z,0.00
2023-04-15T00:21:23.404Z,0.00
2023-04-15T00:22:23.376Z,0.00
2023-04-15T00:23:23.376Z,0.00
2023-04-15T00:24:24.308Z,0.00
2023-04-15T00:25:23.334Z,0.00
2023-04-15T00:26:23.320Z,0.00
2023-04-15T00:27:23.322Z,0.00
2023-04-15T00:28:23.300Z,0.00
2023-04-15T00:29:23.295Z,0.00
2023-04-15T00:30:24.222Z,0.00
2023-04-15T00:31:23.486Z,0.00
2023-04-15T00:32:23.354Z,0.00
2023-04-15T00:33:23.238Z,0.00
2023-04-15T00:34:23.262Z,0.00
2023-04-15T00:35:23.198Z,0.00
2023-04-15T00:36:24.149Z,0.00
2023-04-15T00:37:23.177Z,0.00
2023-04-15T00:38:23.185Z,0.00
2023-04-15T00:39:23.193Z,0.00
2023-04-15T00:40:23.174Z,0.00
2023-04-15T00:41:23.173Z,0.00
2023-04-15T00:42:24.068Z,0.00
2023-04-15T00:43:23.128Z,0.00
2023-04-15T00:44:23.126Z,0.00
2023-04-15T00:45:23.100Z,0.00
2023-04-15T00:46:23.101Z,0.00
2023-04-15T00:47:24.062Z,0.00
2023-04-15T00:48:23.046Z,0.00
2023-04-15T00:49:23.031Z,0.00
2023-04-15T00:50:23.147Z,0.00
2023-04-15T00:51:23.018Z,0.00
2023-04-15T00:52:22.991Z,0.00
2023-04-15T00:53:23.923Z,0.00
2023-04-15T00:54:22.966Z,0.00
2023-04-15T00:55:23.101Z,0.00
2023-04-15T00:56:22.979Z,0.00
2023-04-15T00:57:22.916Z,0.00
2023-04-15T00:58:22.907Z,0.00
2023-04-15T00:59:23.834Z,0.00
2023-04-15T01:00:22.893Z,0.00
2023-04-15T01:01:22.939Z,0.00
2023-04-15T01:02:22.978Z,0.00
2023-04-15T01:03:23.110Z,0.00
2023-04-15T01:04:23.825Z,0.00
2023-04-15T01:05:22.834Z,0.00
2023-04-15T01:06:22.825Z,0.00
2023-04-15T01:07:22.828Z,0.00
2023-04-15T01:08:22.770Z,0.00
2023-04-15T01:09:22.772Z,0.00
2023-04-15T01:10:23.674Z,0.00
2023-04-15T01:11:22.757Z,0.00
2023-04-15T01:12:22.736Z,0.00
2023-04-15T01:13:22.707Z,0.00
2023-04-15T01:14:22.695Z,0.00
2023-04-15T01:15:23.644Z,0.00
2023-04-15T01:16:22.793Z,0.00
2023-04-15T01:17:22.732Z,0.00
2023-04-15T01:18:22.663Z,0.00
2023-04-15T01:19:22.650Z,0.00
2023-04-15T01:20:23.552Z,0.00
2023-04-15T01:21:22.647Z,0.00
2023-04-15T01:22:22.606Z,0.00
2023-04-15T01:23:22.587Z,0.00
2023-04-15T01:24:22.563Z,0.00
2023-04-15T01:25:22.573Z,0.00
2023-04-15T01:26:23.477Z,0.00
2023-04-15T01:27:22.548Z,0.00
2023-04-15T01:28:22.558Z,0.00
2023-04-15T01:29:22.525Z,0.00
2023-04-15T01:30:22.511Z,0.00
2023-04-15T01:31:23.451Z,0.00
2023-04-15T01:32:22.516Z,0.00
2023-04-15T01:33:22.522Z,0.00
2023-04-15T01:34:22.488Z,0.00
2023-04-15T01:35:22.426Z,0.00
2023-04-15T01:36:23.379Z,0.00
2023-04-15T01:37:22.408Z,0.00
2023-04-15T01:38:22.412Z,0.00
2023-04-15T01:39:22.390Z,0.00
2023-04-15T01:40:22.384Z,0.00
2023-04-15T01:41:23.321Z,0.00
2023-04-15T01:42:22.373Z,0.00
2023-04-15T01:43:22.369Z,0.00
2023-04-15T01:44:22.320Z,0.00
2023-04-15T01:45:22.304Z,0.00
2023-04-15T01:46:22.337Z,0.00
2023-04-15T01:47:23.257Z,0.00
2023-04-15T01:48:22.279Z,0.00
2023-04-15T01:49:22.276Z,0.00
2023-04-15T01:50:22.256Z,0.00
2023-04-15T01:51:22.252Z,0.00
2023-04-15T01:52:23.195Z,0.00
2023-04-15T01:53:22.216Z,0.00
2023-04-15T01:54:22.189Z,0.00
2023-04-15T01:55:22.178Z,0.00
2023-04-15T01:56:22.184Z,0.00
2023-04-15T01:57:22.184Z,0.00
2023-04-15T01:58:23.098Z,0.00
2023-04-15T01:59:22.158Z,0.00
2023-04-15T02:00:22.148Z,0.00
2023-04-15T02:01:22.203Z,0.00
2023-04-15T02:02:22.166Z,0.00
2023-04-15T02:03:22.214Z,0.00
2023-04-15T02:04:23.031Z,0.00
2023-04-15T02:05:22.075Z,0.00
2023-04-15T02:06:22.046Z,0.00
2023-04-15T02:07:22.058Z,0.00
2023-04-15T02:08:22.054Z,0.00
2023-04-15T02:09:22.025Z,0.00
2023-04-15T02:10:22.936Z,0.00
2023-04-15T02:11:21.989Z,0.00
2023-04-15T02:12:21.994Z,0.00
2023-04-15T02:13:21.955Z,0.00
2023-04-15T02:14:21.948Z,0.00
2023-04-15T02:15:21.943Z,0.00
2023-04-15T02:16:22.886Z,0.00
2023-04-15T02:17:21.986Z,0.00
2023-04-15T02:18:21.913Z,0.00
2023-04-15T02:19:21.886Z,0.00
2023-04-15T02:20:21.880Z,0.00
2023-04-15T02:21:21.887Z,0.00
2023-04-15T02:22:22.788Z,0.00
2023-04-15T02:23:21.859Z,0.00
2023-04-15T02:24:21.838Z,0.00
2023-04-15T02:25:21.842Z,0.00
2023-04-15T02:26:21.795Z,0.00
2023-04-15T02:27:21.785Z,0.00
2023-04-15T02:28:22.710Z,0.00
2023-04-15T02:29:21.753Z,0.00
2023-04-15T02:30:21.743Z,0.00
2023-04-15T02:31:21.803Z,0.00
2023-04-15T02:32:21.761Z,0.00
2023-04-15T02:33:21.789Z,0.00
2023-04-15T02:34:22.628Z,0.00
2023-04-15T02:35:21.659Z,0.00
2023-04-15T02:36:21.682Z,0.00
2023-04-15T02:37:21.655Z,0.00
2023-04-15T02:38:21.692Z,0.00
2023-04-15T02:39:21.624Z,0.00
2023-04-15T02:40:22.555Z,0.00
2023-04-15T02:41:21.603Z,0.00
2023-04-15T02:42:21.626Z,0.00
2023-04-15T02:43:21.611Z,0.00
2023-04-15T02:44:21.573Z,0.00
2023-04-15T02:45:21.558Z,0.00
2023-04-15T02:46:22.516Z,0.00
2023-04-15T02:47:21.537Z,0.00
2023-04-15T02:48:21.526Z,0.00
2023-04-15T02:49:21.529Z,0.00
2023-04-15T02:50:21.492Z,0.00
2023-04-15T02:51:21.490Z,0.00
2023-04-15T02:52:22.396Z,0.00
2023-04-15T02:53:21.464Z,0.00
2023-04-15T02:54:21.440Z,0.00
2023-04-15T02:55:21.432Z,0.00
2023-04-15T02:56:21.412Z,0.00
2023-04-15T02:57:22.366Z,0.00
2023-04-15T02:58:21.392Z,0.00
2023-04-15T02:59:21.382Z,0.00
2023-04-15T03:00:21.370Z,0.00
2023-04-15T03:01:21.376Z,0.00
2023-04-15T03:02:21.433Z,0.00
2023-04-15T03:03:22.366Z,0.00
2023-04-15T03:04:21.347Z,0.00
2023-04-15T03:05:21.319Z,0.00
2023-04-15T03:06:21.293Z,0.00
2023-04-15T03:07:21.255Z,0.00
2023-04-15T03:08:21.250Z,0.00
2023-04-15T03:09:22.186Z,0.00
2023-04-15T03:10:21.238Z,0.00
2023-04-15T03:11:21.229Z,0.00
2023-04-15T03:12:21.235Z,0.00
2023-04-15T03:13:21.187Z,0.00
2023-04-15T03:14:21.223Z,0.00
2023-04-15T03:15:22.109Z,0.00
2023-04-15T03:16:21.184Z,0.00
2023-04-15T03:17:21.190Z,0.00
2023-04-15T03:18:21.155Z,0.00
2023-04-15T03:19:21.124Z,0.00
2023-04-15T03:20:21.140Z,0.00
2023-04-15T03:21:22.046Z,0.00
2023-04-15T03:22:21.083Z,0.00
2023-04-15T03:23:21.065Z,0.00
2023-04-15T03:24:21.147Z,0.00
2023-04-15T03:25:21.098Z,0.00
2023-04-15T03:26:21.944Z,0.00
2023-04-15T03:27:21.015Z,0.00
2023-04-15T03:28:21.022Z,0.00
2023-04-15T03:29:20.980Z,0.00
2023-04-15T03:30:20.991Z,0.00
2023-04-15T03:31:21.888Z,0.00
2023-04-15T03:32:20.996Z,0.00
2023-04-15T03:33:20.961Z,0.00
2023-04-15T03:34:20.940Z,0.00
2023-04-15T03:35:20.943Z,0.00
2023-04-15T03:36:20.938Z,0.00
2023-04-15T03:37:21.805Z,0.00
2023-04-15T03:38:20.883Z,0.00
2023-04-15T03:39:20.858Z,0.00
2023-04-15T03:40:20.878Z,0.00
2023-04-15T03:41:20.887Z,0.00
2023-04-15T03:42:20.818Z,0.00
2023-04-15T03:43:21.748Z,0.00
2023-04-15T03:44:20.793Z,0.00
2023-04-15T03:45:20.788Z,0.00
2023-04-15T03:46:20.832Z,0.00
2023-04-15T03:47:20.800Z,0.00
2023-04-15T03:48:21.727Z,0.00
2023-04-15T03:49:20.724Z,0.00
2023-04-15T03:50:20.723Z,0.00
2023-04-15T03:51:20.740Z,0.00
2023-04-15T03:52:20.710Z,0.00
2023-04-15T03:53:20.662Z,4.00
2023-04-15T03:54:21.616Z,4.00
2023-04-15T03:55:20.668Z,0.00
2023-04-15T03:56:20.650Z,4.00
2023-04-15T03:57:20.631Z,4.00
2023-04-15T03:58:20.621Z,4.00
2023-04-15T03:59:21.552Z,8.00
2023-04-15T04:00:20.605Z,4.00
2023-04-15T04:01:20.635Z,8.00
2023-04-15T04:02:20.654Z,8.00
2023-04-15T04:03:20.646Z,8.00
2023-04-15T04:04:20.656Z,8.00
2023-04-15T04:05:21.469Z,8.00
2023-04-15T04:06:20.489Z,8.00
2023-04-15T04:07:20.514Z,12.00
2023-04-15T04:08:20.501Z,12.00
2023-04-15T04:09:20.476Z,12.00
2023-04-15T04:10:20.474Z,12.00
2023-04-15T04:11:21.375Z,12.00
2023-04-15T04:12:20.439Z,12.00
2023-04-15T04:13:20.457Z,12.00
2023-04-15T04:14:20.427Z,16.00
2023-04-15T04:15:20.403Z,24.00
2023-04-15T04:16:21.450Z,28.00
2023-04-15T04:17:20.376Z,28.00
2023-04-15T04:18:20.354Z,32.00
2023-04-15T04:19:20.348Z,36.00
2023-04-15T04:20:20.349Z,40.00
2023-04-15T04:21:21.278Z,44.00
2023-04-15T04:22:20.340Z,48.00
2023-04-15T04:23:20.308Z,48.00
2023-04-15T04:24:20.313Z,48.00
2023-04-15T04:25:20.278Z,52.00
2023-04-15T04:26:20.273Z,60.00
2023-04-15T04:27:21.179Z,68.00
2023-04-15T04:28:20.236Z,76.00
2023-04-15T04:29:20.242Z,84.00
2023-04-15T04:30:20.233Z,100.00
2023-04-15T04:31:20.273Z,112.00
2023-04-15T04:32:21.158Z,124.00
2023-04-15T04:33:20.197Z,140.00
2023-04-15T04:34:20.161Z,160.00
2023-04-15T04:35:20.152Z,180.00
2023-04-15T04:36:20.118Z,204.00
2023-04-15T04:37:20.149Z,224.00
2023-04-15T04:38:21.023Z,244.00
2023-04-15T04:39:20.086Z,256.00
2023-04-15T04:40:20.067Z,280.00
2023-04-15T04:41:20.061Z,312.00
2023-04-15T04:42:20.061Z,328.00
2023-04-15T04:43:20.973Z,348.00
2023-04-15T04:44:20.038Z,364.00
2023-04-15T04:45:20.033Z,376.00
2023-04-15T04:46:20.031Z,388.00
2023-04-15T04:47:19.997Z,392.00
2023-04-15T04:48:20.905Z,400.00
2023-04-15T04:49:19.957Z,412.00
2023-04-15T04:50:19.960Z,420.00
2023-04-15T04:51:19.937Z,424.00
2023-04-15T04:52:19.934Z,432.00
2023-04-15T04:53:20.873Z,448.00
2023-04-15T04:54:19.906Z,468.00
2023-04-15T04:55:19.873Z,488.00
2023-04-15T04:56:19.873Z,504.00
2023-04-15T04:57:19.845Z,524.00
2023-04-15T04:58:19.849Z,532.00
2023-04-15T04:59:20.768Z,552.00
2023-04-15T05:00:19.805Z,588.00
2023-04-15T05:01:19.835Z,624.00
2023-04-15T05:02:19.945Z,648.00
2023-04-15T05:03:20.011Z,660.00
2023-04-15T05:04:20.676Z,684.00
2023-04-15T05:05:19.782Z,704.00
2023-04-15T05:06:19.782Z,720.00
2023-04-15T05:07:19.736Z,732.00
2023-04-15T05:08:19.744Z,752.00
2023-04-15T05:09:19.724Z,776.00
2023-04-15T05:10:20.603Z,800.00
2023-04-15T05:11:19.690Z,824.00
2023-04-15T05:12:19.719Z,844.00
2023-04-15T05:13:19.665Z,872.00
2023-04-15T05:14:20.509Z,900.00
2023-04-15T05:15:19.618Z,916.00
2023-04-15T05:16:20.639Z,936.00
2023-04-15T05:17:19.624Z,948.00
2023-04-15T05:18:19.588Z,964.00
2023-04-15T05:19:19.593Z,1000.00
2023-04-15T05:20:19.576Z,1036.00
2023-04-15T05:21:19.603Z,1056.00
2023-04-15T05:22:20.517Z,1052.00
2023-04-15T05:23:19.528Z,1044.00
2023-04-15T05:24:19.500Z,1036.00
2023-04-15T05:25:19.533Z,1032.00
2023-04-15T05:26:19.496Z,1032.00
2023-04-15T05:27:20.406Z,988.00
2023-04-15T05:28:19.474Z,912.00
2023-04-15T05:29:19.460Z,828.00
2023-04-15T05:30:19.443Z,768.00
2023-04-15T05:31:19.529Z,752.00
2023-04-15T05:32:19.451Z,772.00
2023-04-15T05:33:20.358Z,812.00
2023-04-15T05:34:19.412Z,880.00
2023-04-15T05:35:19.375Z,976.00
2023-04-15T05:36:19.407Z,1096.00
2023-04-15T05:37:19.355Z,1224.00
2023-04-15T05:38:20.260Z,1324.00
2023-04-15T05:39:19.351Z,1316.00
2023-04-15T05:40:19.350Z,1256.00
2023-04-15T05:41:19.958Z,1220.00
2023-04-15T05:42:19.277Z,1276.00
2023-04-15T05:43:19.278Z,1320.00
2023-04-15T05:44:20.205Z,1360.00
2023-04-15T05:45:19.270Z,1372.00
2023-04-15T05:46:19.248Z,1368.00
2023-04-15T05:47:19.249Z,1388.00
2023-04-15T05:48:19.226Z,1416.00
2023-04-15T05:49:19.214Z,1444.00
2023-04-15T05:50:20.122Z,1464.00
2023-04-15T05:51:19.175Z,1500.00
2023-04-15T05:52:19.175Z,1524.00
2023-04-15T05:53:19.154Z,1588.00
2023-04-15T05:54:20.302Z,1676.00
2023-04-15T05:55:20.280Z,1820.00
2023-04-15T05:56:19.156Z,1976.00
2023-04-15T05:57:19.150Z,2116.00
2023-04-15T05:58:19.069Z,2232.00
2023-04-15T05:59:19.068Z,2308.00
2023-04-15T06:00:19.980Z,2388.00
2023-04-15T06:01:19.052Z,2492.00
2023-04-15T06:02:19.175Z,2544.00
2023-04-15T06:03:19.073Z,2556.00
2023-04-15T06:04:19.186Z,2592.00
2023-04-15T06:05:19.046Z,2644.00
2023-04-15T06:06:19.963Z,2720.00
2023-04-15T06:07:18.953Z,2788.00
2023-04-15T06:08:18.995Z,2852.00
2023-04-15T06:09:18.979Z,2856.00
2023-04-15T06:10:18.938Z,2860.00
2023-04-15T06:11:18.958Z,2872.00
2023-04-15T06:12:19.838Z,2892.00
2023-04-15T06:13:18.908Z,2904.00
2023-04-15T06:14:18.896Z,2888.00
2023-04-15T06:15:18.893Z,2872.00
2023-04-15T06:16:18.903Z,2860.00
2023-04-15T06:17:18.899Z,2832.00
2023-04-15T06:18:19.761Z,2816.00
2023-04-15T06:19:19.144Z,2800.00
2023-04-15T06:20:18.827Z,2824.00
2023-04-15T06:21:18.791Z,2828.00
2023-04-15T06:22:18.782Z,2848.00
2023-04-15T06:23:18.773Z,2860.00
2023-04-15T06:24:19.716Z,2880.00
2023-04-15T06:25:18.756Z,2900.00
2023-04-15T06:26:18.728Z,2924.00
2023-04-15T06:27:18.720Z,2948.00
2023-04-15T06:28:18.715Z,2968.00
2023-04-15T06:29:19.647Z,2992.00
2023-04-15T06:30:18.723Z,3016.00
2023-04-15T06:31:18.716Z,3056.00
2023-04-15T06:32:18.647Z,3100.00
2023-04-15T06:33:18.650Z,3136.00
2023-04-15T06:34:18.627Z,3160.00
2023-04-15T06:35:19.554Z,3208.00
2023-04-15T06:36:18.613Z,3332.00
2023-04-15T06:37:18.608Z,3504.00
2023-04-15T06:38:18.574Z,3752.00
2023-04-15T06:39:18.554Z,4008.00
2023-04-15T06:40:18.603Z,4252.00
2023-04-15T06:41:19.493Z,4416.00
2023-04-15T06:42:18.543Z,4508.00
2023-04-15T06:43:18.543Z,4568.00
2023-04-15T06:44:18.496Z,4584.00
2023-04-15T06:45:18.490Z,4588.00
2023-04-15T06:46:19.583Z,4660.00
2023-04-15T06:47:18.499Z,4704.00
2023-04-15T06:48:18.451Z,4760.00
2023-04-15T06:49:18.457Z,4828.00
2023-04-15T06:50:18.461Z,4912.00
2023-04-15T06:51:19.350Z,5060.00
2023-04-15T06:52:18.410Z,5120.00
2023-04-15T06:53:18.413Z,5172.00
2023-04-15T06:54:18.383Z,5316.00
2023-04-15T06:55:18.355Z,5408.00
2023-04-15T06:56:18.352Z,5460.00
2023-04-15T06:57:19.295Z,5496.00
2023-04-15T06:58:18.348Z,5620.00
2023-04-15T06:59:18.323Z,5752.00
2023-04-15T07:00:18.288Z,5856.00
2023-04-15T07:01:18.353Z,5960.00
2023-04-15T07:02:19.325Z,6296.00
2023-04-15T07:03:18.301Z,6416.00
2023-04-15T07:04:18.273Z,6524.00
2023-04-15T07:05:18.238Z,6428.00
2023-04-15T07:06:18.235Z,6368.00
2023-04-15T07:07:19.149Z,6408.00
2023-04-15T07:08:18.201Z,6484.00
2023-04-15T07:09:18.192Z,6364.00
2023-04-15T07:10:18.182Z,6608.00
2023-04-15T07:11:18.144Z,6696.00
2023-04-15T07:12:18.162Z,6764.00
2023-04-15T07:13:19.074Z,6600.00
2023-04-15T07:14:18.167Z,6304.00
2023-04-15T07:15:18.114Z,5800.00
2023-04-15T07:16:18.121Z,6436.00
2023-04-15T07:17:18.110Z,6144.00
2023-04-15T07:18:19.018Z,6284.00
2023-04-15T07:19:18.061Z,5900.00
2023-04-15T07:20:18.047Z,5340.00
2023-04-15T07:21:18.049Z,5512.00
2023-04-15T07:22:18.040Z,5792.00
2023-04-15T07:23:18.013Z,5984.00
2023-04-15T07:24:18.937Z,5548.00
2023-04-15T07:25:18.364Z,5592.00
2023-04-15T07:26:17.950Z,5744.00
2023-04-15T07:27:17.980Z,5304.00
2023-04-15T07:28:17.927Z,5144.00
2023-04-15T07:29:18.868Z,4392.00
2023-04-15T07:30:17.930Z,4044.00
2023-04-15T07:31:17.974Z,3436.00
2023-04-15T07:32:17.873Z,3624.00
2023-04-15T07:33:17.898Z,3484.00
2023-04-15T07:34:18.803Z,3860.00
2023-04-15T07:35:17.848Z,4228.00
2023-04-15T07:36:17.841Z,4280.00
2023-04-15T07:37:17.817Z,3968.00
2023-04-15T07:38:17.810Z,3716.00
2023-04-15T07:39:18.703Z,4460.00
2023-04-15T07:40:17.780Z,4524.00
2023-04-15T07:41:17.783Z,4424.00
2023-04-15T07:42:17.877Z,4756.00
2023-04-15T07:43:17.731Z,4264.00
2023-04-15T07:44:18.646Z,3456.00
2023-04-15T07:45:17.774Z,3860.00
2023-04-15T07:46:17.761Z,3736.00
2023-04-15T07:47:17.762Z,3432.00
2023-04-15T07:48:17.683Z,3076.00
2023-04-15T07:49:17.692Z,3516.00
2023-04-15T07:50:18.585Z,3140.00
2023-04-15T07:51:17.674Z,3156.00
2023-04-15T07:52:17.622Z,3596.00
2023-04-15T07:53:17.614Z,3508.00
2023-04-15T07:54:17.635Z,2960.00
2023-04-15T07:55:18.517Z,3032.00
2023-04-15T07:56:17.603Z,2632.00
2023-04-15T07:57:17.581Z,2348.00
2023-04-15T07:58:17.577Z,2904.00
2023-04-15T07:59:17.547Z,3488.00
2023-04-15T08:00:18.428Z,3976.00
2023-04-15T08:01:17.516Z,3836.00
2023-04-15T08:02:17.620Z,3456.00
2023-04-15T08:03:17.559Z,3440.00
2023-04-15T08:04:17.582Z,3212.00
2023-04-15T08:05:17.509Z,3588.00
2023-04-15T08:06:18.368Z,4020.00
2023-04-15T08:07:17.416Z,3556.00
2023-04-15T08:08:17.480Z,3720.00
2023-04-15T08:09:17.408Z,3336.00
2023-04-15T08:10:17.384Z,3064.00
2023-04-15T08:11:17.379Z,2992.00
2023-04-15T08:12:18.291Z,3440.00
2023-04-15T08:13:17.380Z,3444.00
2023-04-15T08:14:17.353Z,3208.00
2023-04-15T08:15:17.376Z,2752.00
2023-04-15T08:16:17.336Z,2720.00
2023-04-15T08:17:17.325Z,2692.00
2023-04-15T08:18:18.223Z,2556.00
2023-04-15T08:19:17.280Z,2712.00
2023-04-15T08:20:17.234Z,2556.00
2023-04-15T08:21:17.237Z,2828.00
2023-04-15T08:22:18.186Z,2664.00
2023-04-15T08:23:17.261Z,2872.00
2023-04-15T08:24:18.140Z,2876.00
2023-04-15T08:25:17.183Z,2888.00
2023-04-15T08:26:17.168Z,3072.00
2023-04-15T08:27:17.188Z,3152.00
2023-04-15T08:28:17.163Z,3160.00
2023-04-15T08:29:18.117Z,3124.00
2023-04-15T08:30:17.125Z,3608.00
2023-04-15T08:31:17.122Z,3052.00
2023-04-15T08:32:17.109Z,3388.00
2023-04-15T08:33:17.073Z,3236.00
2023-04-15T08:34:17.058Z,3124.00
2023-04-15T08:35:18.000Z,3272.00
2023-04-15T08:36:17.056Z,3308.00
2023-04-15T08:37:17.030Z,3260.00
2023-04-15T08:38:17.028Z,3244.00
2023-04-15T08:39:17.021Z,3288.00
2023-04-15T08:40:17.015Z,3776.00
2023-04-15T08:41:17.918Z,4012.00
2023-04-15T08:42:16.963Z,3404.00
2023-04-15T08:43:16.961Z,3280.00
2023-04-15T08:44:16.945Z,3804.00
2023-04-15T08:45:16.915Z,3876.00
2023-04-15T08:46:16.934Z,3492.00
2023-04-15T08:47:17.832Z,3864.00
2023-04-15T08:48:16.921Z,4244.00
2023-04-15T08:49:16.951Z,4280.00
2023-04-15T08:50:16.847Z,3748.00
2023-04-15T08:51:16.867Z,4616.00
2023-04-15T08:52:17.768Z,4408.00
2023-04-15T08:53:16.849Z,4392.00
2023-04-15T08:54:16.819Z,3704.00
2023-04-15T08:55:16.815Z,3428.00
2023-04-15T08:56:17.031Z,3308.00
2023-04-15T08:57:16.798Z,3056.00
2023-04-15T08:58:17.711Z,3176.00
2023-04-15T08:59:16.740Z,3228.00
2023-04-15T09:00:16.741Z,2836.00
2023-04-15T09:01:16.751Z,3128.00
2023-04-15T09:02:16.725Z,3260.00
2023-04-15T09:03:16.789Z,3196.00
2023-04-15T09:04:17.641Z,3544.00
2023-04-15T09:05:16.682Z,3024.00
2023-04-15T09:06:16.788Z,3328.00
2023-04-15T09:07:16.667Z,3396.00
2023-04-15T09:08:16.665Z,3544.00
2023-04-15T09:09:16.630Z,3660.00
2023-04-15T09:10:17.551Z,3956.00
2023-04-15T09:11:17.400Z,3832.00
2023-04-15T09:12:16.580Z,3372.00
2023-04-15T09:13:16.611Z,3064.00
2023-04-15T09:14:16.544Z,3984.00
2023-04-15T09:15:16.543Z,3240.00
2023-04-15T09:16:17.534Z,3580.00
2023-04-15T09:17:16.508Z,4308.00
2023-04-15T09:18:16.503Z,5000.00
2023-04-15T09:19:16.476Z,4096.00
2023-04-15T09:20:16.500Z,3932.00
2023-04-15T09:21:16.504Z,4040.00
2023-04-15T09:22:17.366Z,3568.00
2023-04-15T09:23:16.442Z,3644.00
2023-04-15T09:24:16.427Z,3844.00
2023-04-15T09:25:16.408Z,3792.00
2023-04-15T09:26:16.406Z,3952.00
2023-04-15T09:27:17.446Z,3592.00
2023-04-15T09:28:16.678Z,4068.00
2023-04-15T09:29:16.377Z,4716.00
2023-04-15T09:30:16.374Z,3952.00
2023-04-15T09:31:16.393Z,3960.00
2023-04-15T09:32:16.336Z,3268.00
2023-04-15T09:33:17.284Z,3392.00
2023-04-15T09:34:16.284Z,3116.00
2023-04-15T09:35:16.271Z,3860.00
2023-04-15T09:36:16.278Z,3816.00
2023-04-15T09:37:31.294Z,3844.00
2023-04-15T09:38:17.755Z,4300.00
2023-04-15T09:39:17.151Z,4172.00
2023-04-15T09:40:16.205Z,4896.00
2023-04-15T09:41:16.301Z,5052.00
2023-04-15T09:42:16.189Z,4796.00
2023-04-15T09:43:16.166Z,4480.00
2023-04-15T09:44:17.094Z,4100.00
2023-04-15T09:45:16.172Z,4496.00
2023-04-15T09:46:16.194Z,5164.00
2023-04-15T09:47:16.130Z,4956.00
2023-04-15T09:48:16.103Z,5024.00
2023-04-15T09:49:17.044Z,4852.00
2023-04-15T09:50:16.092Z,4636.00
2023-04-15T09:51:16.097Z,4464.00
2023-04-15T09:52:16.058Z,4164.00
2023-04-15T09:53:16.021Z,4216.00
2023-04-15T09:54:17.024Z,4184.00
2023-04-15T09:55:16.287Z,4212.00
2023-04-15T09:56:16.003Z,4452.00
2023-04-15T09:57:16.214Z,4296.00
2023-04-15T09:58:16.058Z,4196.00
2023-04-15T09:59:16.013Z,3852.00
2023-04-15T10:00:16.921Z,3884.00
2023-04-15T10:01:15.942Z,3384.00
2023-04-15T10:02:15.998Z,3432.00
2023-04-15T10:03:16.069Z,4236.00
2023-04-15T10:04:16.018Z,3500.00
2023-04-15T10:05:15.888Z,4036.00
2023-04-15T10:06:16.815Z,3852.00
2023-04-15T10:07:15.891Z,4156.00
2023-04-15T10:08:15.865Z,4460.00
2023-04-15T10:09:15.852Z,3988.00
2023-04-15T10:10:15.907Z,3292.00
2023-04-15T10:11:15.838Z,3596.00
2023-04-15T10:12:16.750Z,3396.00
2023-04-15T10:13:15.826Z,3708.00
2023-04-15T10:14:15.787Z,3336.00
2023-04-15T10:15:15.759Z,3272.00
2023-04-15T10:16:15.774Z,3312.00
2023-04-15T10:17:15.735Z,3540.00
2023-04-15T10:18:16.683Z,3812.00
2023-04-15T10:19:15.738Z,3588.00
2023-04-15T10:20:15.745Z,3416.00
2023-04-15T10:21:15.694Z,3436.00
2023-04-15T10:22:15.697Z,3512.00
2023-04-15T10:23:15.681Z,4004.00
2023-04-15T10:24:16.572Z,3908.00
2023-04-15T10:25:15.665Z,3404.00
2023-04-15T10:26:15.642Z,3424.00
2023-04-15T10:27:15.635Z,3532.00
2023-04-15T10:28:15.639Z,3328.00
2023-04-15T10:29:15.588Z,3312.00
2023-04-15T10:30:16.496Z,3200.00
2023-04-15T10:31:15.617Z,3648.00
2023-04-15T10:32:15.551Z,3084.00
2023-04-15T10:33:15.556Z,3020.00
2023-04-15T10:34:15.634Z,3432.00
2023-04-15T10:35:15.529Z,3512.00
2023-04-15T10:36:16.425Z,3816.00
2023-04-15T10:37:15.526Z,3804.00
2023-04-15T10:38:15.493Z,3684.00
2023-04-15T10:39:15.567Z,3928.00
2023-04-15T10:40:15.425Z,4260.00
2023-04-15T10:41:17.067Z,4336.00
2023-04-15T10:42:16.385Z,3764.00
2023-04-15T10:43:15.409Z,5268.00
2023-04-15T10:44:15.379Z,5228.00
2023-04-15T10:45:15.393Z,5120.00
2023-04-15T10:46:15.370Z,5224.00
2023-04-15T10:47:15.364Z,5368.00
2023-04-15T10:48:16.293Z,4268.00
2023-04-15T10:49:15.360Z,4004.00
2023-04-15T10:50:15.362Z,5120.00
2023-04-15T10:51:15.336Z,5300.00
2023-04-15T10:52:15.291Z,5724.00
2023-04-15T10:53:16.212Z,5216.00
2023-04-15T10:54:15.310Z,4848.00
2023-04-15T10:55:15.246Z,5880.00
2023-04-15T10:56:15.279Z,6324.00
2023-04-15T10:57:15.237Z,6864.00
2023-04-15T10:58:16.138Z,6596.00
2023-04-15T10:59:15.197Z,5944.00
2023-04-15T11:00:15.217Z,6532.00
2023-04-15T11:01:15.177Z,6276.00
2023-04-15T11:02:15.279Z,5560.00
2023-04-15T11:03:15.237Z,6060.00
2023-04-15T11:04:16.187Z,5668.00
2023-04-15T11:05:15.151Z,6368.00
2023-04-15T11:06:16.166Z,5568.00
2023-04-15T11:07:15.122Z,6248.00
2023-04-15T11:08:15.101Z,5252.00
2023-04-15T11:09:16.003Z,5264.00
2023-04-15T11:10:15.064Z,4460.00
2023-04-15T11:11:15.051Z,5204.00
2023-04-15T11:12:15.026Z,4352.00
2023-04-15T11:13:15.034Z,4564.00
2023-04-15T11:14:15.949Z,5072.00
2023-04-15T11:15:15.034Z,4560.00
2023-04-15T11:16:15.041Z,4444.00
2023-04-15T11:17:14.986Z,3788.00
2023-04-15T11:18:15.004Z,3236.00
2023-04-15T11:19:15.905Z,3164.00
2023-04-15T11:20:14.940Z,3312.00
2023-04-15T11:21:15.169Z,3476.00
2023-04-15T11:22:14.910Z,3424.00
2023-04-15T11:23:15.730Z,2804.00
2023-04-15T11:24:14.903Z,2980.00
2023-04-15T11:25:15.791Z,3424.00
2023-04-15T11:26:14.866Z,3356.00
2023-04-15T11:27:14.869Z,3024.00
2023-04-15T11:28:14.856Z,3200.00
2023-04-15T11:29:14.831Z,3376.00
2023-04-15T11:30:15.728Z,3588.00
2023-04-15T11:31:14.819Z,3704.00
2023-04-15T11:32:14.828Z,3200.00
2023-04-15T11:33:14.787Z,3464.00
2023-04-15T11:34:14.762Z,3724.00
2023-04-15T11:35:15.678Z,3132.00
2023-04-15T11:36:14.772Z,3028.00
2023-04-15T11:37:14.712Z,3136.00
2023-04-15T11:38:14.719Z,3228.00
2023-04-15T11:39:14.699Z,2668.00
2023-04-15T11:40:15.593Z,3548.00
2023-04-15T11:41:14.660Z,3296.00
2023-04-15T11:42:14.657Z,2968.00
2023-04-15T11:43:14.647Z,2568.00
2023-04-15T11:44:14.635Z,2368.00
2023-04-15T11:45:15.536Z,2344.00
2023-04-15T11:46:14.665Z,2552.00
2023-04-15T11:47:14.592Z,2764.00
2023-04-15T11:48:14.619Z,3520.00
2023-04-15T11:49:14.563Z,3540.00
2023-04-15T11:50:14.544Z,3340.00
2023-04-15T11:51:15.491Z,3268.00
2023-04-15T11:52:14.495Z,3092.00
2023-04-15T11:53:14.493Z,3660.00
2023-04-15T11:54:14.498Z,3572.00
2023-04-15T11:55:14.513Z,3668.00
2023-04-15T11:57:12.897Z,3636.00
2023-04-15T11:58:14.430Z,3880.00
2023-04-15T11:59:12.854Z,4008.00
2023-04-15T12:00:12.801Z,4460.00
2023-04-15T12:01:12.892Z,5044.00
2023-04-15T12:02:13.869Z,4424.00
2023-04-15T12:03:12.938Z,4188.00
2023-04-15T12:04:13.027Z,4688.00
2023-04-15T12:05:12.800Z,3296.00
2023-04-15T12:06:12.762Z,2504.00
2023-04-15T12:07:13.727Z,2412.00
2023-04-15T12:08:12.788Z,3692.00
2023-04-15T12:09:12.756Z,3892.00
2023-04-15T12:10:12.723Z,3164.00
2023-04-15T12:11:12.767Z,3468.00
2023-04-15T12:12:12.702Z,4512.00
2023-04-15T12:13:13.684Z,4640.00
2023-04-15T12:14:12.692Z,5020.00
2023-04-15T12:15:12.730Z,5024.00
2023-04-15T12:16:12.676Z,4824.00
2023-04-15T12:17:12.680Z,6404.00
2023-04-15T12:18:13.566Z,5564.00
2023-04-15T12:19:12.612Z,4828.00
2023-04-15T12:20:12.623Z,4020.00
2023-04-15T12:21:12.562Z,4628.00
2023-04-15T12:22:12.581Z,5348.00
2023-04-15T12:23:12.578Z,6104.00
2023-04-15T12:24:13.502Z,5256.00
2023-04-15T12:25:12.524Z,4948.00
2023-04-15T12:26:12.549Z,4536.00
2023-04-15T12:27:12.497Z,3968.00
2023-04-15T12:28:12.531Z,4900.00
2023-04-15T12:29:12.472Z,4756.00
2023-04-15T12:30:13.396Z,4236.00
2023-04-15T12:31:12.457Z,5128.00
2023-04-15T12:32:12.509Z,4560.00